sensor_id;sensor_type;location;lat;lon;timestamp;P1;durP1;ratioP1;P2;durP2;ratioP2
47383;SDS011;33129;52.232;5.192;2022-07-06T00:01:42;3.93;;;1.40;;
47383;SDS011;33129;52.232;5.192;2022-07-06T00:04:07;5.90;;;1.77;;
47383;SDS011;33129;52.232;5.192;2022-07-06T00:06:33;4.17;;;1.30;;
47383;SDS011;33129;52.232;5.192;2022-07-06T00:08:59;4.47;;;1.33;;
47383;SDS011;33129;52.232;5.192;2022-07-06T00:11:25;5.53;;;1.43;;
47383;SDS011;33129;52.232;5.192;2022-07-06T00:13:51;5.80;;;1.43;;
47383;SDS011;33129;52.232;5.192;2022-07-06T00:16:17;4.47;;;1.40;;
47383;SDS011;33129;52.232;5.192;2022-07-06T00:18:44;4.53;;;1.30;;
47383;SDS011;33129;52.232;5.192;2022-07-06T00:21:10;5.70;;;1.57;;
47383;SDS011;33129;52.232;5.192;2022-07-06T00:23:36;5.70;;;1.97;;
47383;SDS011;33129;52.232;5.192;2022-07-06T00:26:02;7.00;;;1.70;;
47383;SDS011;33129;52.232;5.192;2022-07-06T00:28:28;4.27;;;1.30;;
47383;SDS011;33129;52.232;5.192;2022-07-06T00:30:54;7.00;;;1.47;;
47383;SDS011;33129;52.232;5.192;2022-07-06T00:33:20;5.90;;;1.40;;
47383;SDS011;33129;52.232;5.192;2022-07-06T00:35:46;4.73;;;1.40;;
47383;SDS011;33129;52.232;5.192;2022-07-06T00:38:12;5.33;;;1.30;;
47383;SDS011;33129;52.232;5.192;2022-07-06T00:40:38;6.90;;;1.80;;
47383;SDS011;33129;52.232;5.192;2022-07-06T00:43:03;7.47;;;2.03;;
47383;SDS011;33129;52.232;5.192;2022-07-06T00:45:29;5.70;;;1.47;;
47383;SDS011;33129;52.232;5.192;2022-07-06T00:47:55;6.83;;;1.37;;
47383;SDS011;33129;52.232;5.192;2022-07-06T00:50:21;3.83;;;1.33;;
47383;SDS011;33129;52.232;5.192;2022-07-06T00:52:48;4.77;;;1.37;;
47383;SDS011;33129;52.232;5.192;2022-07-06T00:55:16;7.17;;;1.93;;
47383;SDS011;33129;52.232;5.192;2022-07-06T00:57:45;3.00;;;1.10;;
47383;SDS011;33129;52.232;5.192;2022-07-06T01:00:12;3.70;;;1.17;;
47383;SDS011;33129;52.232;5.192;2022-07-06T01:02:41;4.77;;;1.23;;
47383;SDS011;33129;52.232;5.192;2022-07-06T01:05:08;6.67;;;1.20;;
47383;SDS011;33129;52.232;5.192;2022-07-06T01:07:37;9.00;;;1.47;;
47383;SDS011;33129;52.232;5.192;2022-07-06T01:10:06;3.10;;;1.27;;
47383;SDS011;33129;52.232;5.192;2022-07-06T01:12:35;5.53;;;1.27;;
47383;SDS011;33129;52.232;5.192;2022-07-06T01:15:04;5.27;;;1.20;;
47383;SDS011;33129;52.232;5.192;2022-07-06T01:17:33;4.40;;;1.20;;
47383;SDS011;33129;52.232;5.192;2022-07-06T01:20:15;4.07;;;1.13;;
47383;SDS011;33129;52.232;5.192;2022-07-06T01:22:49;5.20;;;1.30;;
47383;SDS011;33129;52.232;5.192;2022-07-06T01:25:17;6.30;;;1.30;;
47383;SDS011;33129;52.232;5.192;2022-07-06T01:27:44;3.37;;;1.10;;
47383;SDS011;33129;52.232;5.192;2022-07-06T01:30:11;3.97;;;1.07;;
47383;SDS011;33129;52.232;5.192;2022-07-06T01:32:40;7.55;;;1.83;;
47383;SDS011;33129;52.232;5.192;2022-07-06T01:35:08;6.03;;;1.60;;
47383;SDS011;33129;52.232;5.192;2022-07-06T01:37:38;4.87;;;1.30;;
47383;SDS011;33129;52.232;5.192;2022-07-06T01:40:06;3.40;;;1.20;;
47383;SDS011;33129;52.232;5.192;2022-07-06T01:42:34;4.10;;;1.20;;
47383;SDS011;33129;52.232;5.192;2022-07-06T01:45:00;6.77;;;1.80;;
47383;SDS011;33129;52.232;5.192;2022-07-06T01:47:28;5.37;;;1.60;;
47383;SDS011;33129;52.232;5.192;2022-07-06T01:49:54;7.13;;;1.20;;
47383;SDS011;33129;52.232;5.192;2022-07-06T01:52:23;5.07;;;1.40;;
47383;SDS011;33129;52.232;5.192;2022-07-06T01:54:48;5.70;;;1.50;;
47383;SDS011;33129;52.232;5.192;2022-07-06T01:57:14;4.23;;;1.03;;
47383;SDS011;33129;52.232;5.192;2022-07-06T01:59:40;5.20;;;1.50;;
47383;SDS011;33129;52.232;5.192;2022-07-06T02:02:06;4.83;;;1.20;;
47383;SDS011;33129;52.232;5.192;2022-07-06T02:04:32;3.90;;;1.10;;
47383;SDS011;33129;52.232;5.192;2022-07-06T02:06:57;4.47;;;2.03;;
47383;SDS011;33129;52.232;5.192;2022-07-06T02:09:23;4.43;;;1.50;;
47383;SDS011;33129;52.232;5.192;2022-07-06T02:11:49;4.40;;;1.30;;
47383;SDS011;33129;52.232;5.192;2022-07-06T02:14:15;5.23;;;1.50;;
47383;SDS011;33129;52.232;5.192;2022-07-06T02:16:40;4.37;;;1.07;;
47383;SDS011;33129;52.232;5.192;2022-07-06T02:19:06;5.37;;;1.13;;
47383;SDS011;33129;52.232;5.192;2022-07-06T02:21:32;6.33;;;1.30;;
47383;SDS011;33129;52.232;5.192;2022-07-06T02:23:58;5.63;;;1.60;;
47383;SDS011;33129;52.232;5.192;2022-07-06T02:26:23;2.93;;;1.00;;
47383;SDS011;33129;52.232;5.192;2022-07-06T02:28:49;4.53;;;1.13;;
47383;SDS011;33129;52.232;5.192;2022-07-06T02:31:15;5.20;;;1.63;;
47383;SDS011;33129;52.232;5.192;2022-07-06T02:33:41;5.27;;;1.37;;
47383;SDS011;33129;52.232;5.192;2022-07-06T02:36:07;6.67;;;1.70;;
47383;SDS011;33129;52.232;5.192;2022-07-06T02:38:33;4.43;;;1.03;;
47383;SDS011;33129;52.232;5.192;2022-07-06T02:40:59;3.83;;;1.10;;
47383;SDS011;33129;52.232;5.192;2022-07-06T02:43:24;4.03;;;1.23;;
47383;SDS011;33129;52.232;5.192;2022-07-06T02:45:50;5.53;;;1.10;;
47383;SDS011;33129;52.232;5.192;2022-07-06T02:48:16;3.17;;;1.23;;
47383;SDS011;33129;52.232;5.192;2022-07-06T02:50:44;3.90;;;1.13;;
47383;SDS011;33129;52.232;5.192;2022-07-06T02:53:10;5.93;;;1.43;;
47383;SDS011;33129;52.232;5.192;2022-07-06T02:55:35;3.90;;;0.80;;
47383;SDS011;33129;52.232;5.192;2022-07-06T02:58:01;5.67;;;1.20;;
47383;SDS011;33129;52.232;5.192;2022-07-06T03:00:27;5.03;;;1.23;;
47383;SDS011;33129;52.232;5.192;2022-07-06T03:02:52;5.13;;;1.20;;
47383;SDS011;33129;52.232;5.192;2022-07-06T03:05:18;5.33;;;1.00;;
47383;SDS011;33129;52.232;5.192;2022-07-06T03:07:44;3.73;;;1.00;;
47383;SDS011;33129;52.232;5.192;2022-07-06T03:10:10;5.67;;;1.20;;
47383;SDS011;33129;52.232;5.192;2022-07-06T03:12:35;5.33;;;1.23;;
47383;SDS011;33129;52.232;5.192;2022-07-06T03:15:01;4.20;;;0.80;;
47383;SDS011;33129;52.232;5.192;2022-07-06T03:17:27;3.83;;;1.17;;
47383;SDS011;33129;52.232;5.192;2022-07-06T03:19:53;4.23;;;1.00;;
47383;SDS011;33129;52.232;5.192;2022-07-06T03:22:18;4.10;;;1.00;;
47383;SDS011;33129;52.232;5.192;2022-07-06T03:24:44;4.60;;;1.30;;
47383;SDS011;33129;52.232;5.192;2022-07-06T03:27:10;4.17;;;1.00;;
47383;SDS011;33129;52.232;5.192;2022-07-06T03:29:35;4.87;;;1.00;;
47383;SDS011;33129;52.232;5.192;2022-07-06T03:32:01;7.80;;;1.20;;
47383;SDS011;33129;52.232;5.192;2022-07-06T03:34:27;4.80;;;1.30;;
47383;SDS011;33129;52.232;5.192;2022-07-06T03:36:53;3.00;;;1.00;;
47383;SDS011;33129;52.232;5.192;2022-07-06T03:39:18;3.73;;;1.20;;
47383;SDS011;33129;52.232;5.192;2022-07-06T03:41:44;3.77;;;0.90;;
47383;SDS011;33129;52.232;5.192;2022-07-06T03:44:10;4.40;;;1.00;;
47383;SDS011;33129;52.232;5.192;2022-07-06T03:46:36;5.00;;;1.20;;
47383;SDS011;33129;52.232;5.192;2022-07-06T03:49:01;4.80;;;1.27;;
47383;SDS011;33129;52.232;5.192;2022-07-06T03:51:27;4.17;;;1.10;;
47383;SDS011;33129;52.232;5.192;2022-07-06T03:53:53;4.47;;;1.40;;
47383;SDS011;33129;52.232;5.192;2022-07-06T03:56:18;4.27;;;1.00;;
47383;SDS011;33129;52.232;5.192;2022-07-06T03:58:54;3.63;;;1.03;;
47383;SDS011;33129;52.232;5.192;2022-07-06T04:01:26;5.40;;;1.47;;
47383;SDS011;33129;52.232;5.192;2022-07-06T04:03:53;4.10;;;1.10;;
47383;SDS011;33129;52.232;5.192;2022-07-06T04:06:19;6.17;;;1.13;;
47383;SDS011;33129;52.232;5.192;2022-07-06T04:08:45;7.40;;;1.83;;
47383;SDS011;33129;52.232;5.192;2022-07-06T04:11:11;8.10;;;1.17;;
47383;SDS011;33129;52.232;5.192;2022-07-06T04:13:36;5.67;;;1.20;;
47383;SDS011;33129;52.232;5.192;2022-07-06T04:16:04;3.97;;;1.10;;
47383;SDS011;33129;52.232;5.192;2022-07-06T04:18:31;4.03;;;1.17;;
47383;SDS011;33129;52.232;5.192;2022-07-06T04:20:57;6.97;;;1.13;;
47383;SDS011;33129;52.232;5.192;2022-07-06T04:23:23;3.80;;;1.00;;
47383;SDS011;33129;52.232;5.192;2022-07-06T04:25:49;4.50;;;1.40;;
47383;SDS011;33129;52.232;5.192;2022-07-06T04:28:14;4.47;;;1.20;;
47383;SDS011;33129;52.232;5.192;2022-07-06T04:30:41;3.80;;;1.00;;
47383;SDS011;33129;52.232;5.192;2022-07-06T04:33:06;4.30;;;1.17;;
47383;SDS011;33129;52.232;5.192;2022-07-06T04:35:32;5.23;;;1.10;;
47383;SDS011;33129;52.232;5.192;2022-07-06T04:37:58;4.33;;;1.00;;
47383;SDS011;33129;52.232;5.192;2022-07-06T04:40:23;4.37;;;1.20;;
47383;SDS011;33129;52.232;5.192;2022-07-06T04:42:49;3.40;;;0.93;;
47383;SDS011;33129;52.232;5.192;2022-07-06T04:45:15;4.70;;;1.00;;
47383;SDS011;33129;52.232;5.192;2022-07-06T04:47:41;6.73;;;1.17;;
47383;SDS011;33129;52.232;5.192;2022-07-06T04:50:08;4.53;;;1.47;;
47383;SDS011;33129;52.232;5.192;2022-07-06T04:52:34;4.10;;;1.40;;
47383;SDS011;33129;52.232;5.192;2022-07-06T04:55:00;3.53;;;1.30;;
47383;SDS011;33129;52.232;5.192;2022-07-06T04:57:26;5.27;;;1.00;;
47383;SDS011;33129;52.232;5.192;2022-07-06T04:59:54;3.77;;;0.93;;
47383;SDS011;33129;52.232;5.192;2022-07-06T05:02:20;3.77;;;1.00;;
47383;SDS011;33129;52.232;5.192;2022-07-06T05:04:46;4.00;;;1.20;;
47383;SDS011;33129;52.232;5.192;2022-07-06T05:07:12;2.97;;;1.03;;
47383;SDS011;33129;52.232;5.192;2022-07-06T05:09:38;3.77;;;1.10;;
47383;SDS011;33129;52.232;5.192;2022-07-06T05:12:03;5.30;;;1.20;;
47383;SDS011;33129;52.232;5.192;2022-07-06T05:14:29;4.97;;;1.20;;
47383;SDS011;33129;52.232;5.192;2022-07-06T05:16:55;4.47;;;1.17;;
47383;SDS011;33129;52.232;5.192;2022-07-06T05:19:21;4.57;;;1.10;;
47383;SDS011;33129;52.232;5.192;2022-07-06T05:21:46;5.67;;;1.03;;
47383;SDS011;33129;52.232;5.192;2022-07-06T05:24:12;3.50;;;1.00;;
47383;SDS011;33129;52.232;5.192;2022-07-06T05:26:38;5.13;;;1.30;;
47383;SDS011;33129;52.232;5.192;2022-07-06T05:29:04;3.00;;;0.80;;
47383;SDS011;33129;52.232;5.192;2022-07-06T05:31:29;2.30;;;0.97;;
47383;SDS011;33129;52.232;5.192;2022-07-06T05:33:55;3.50;;;0.90;;
47383;SDS011;33129;52.232;5.192;2022-07-06T05:36:21;5.67;;;1.23;;
47383;SDS011;33129;52.232;5.192;2022-07-06T05:38:47;4.57;;;0.90;;
47383;SDS011;33129;52.232;5.192;2022-07-06T05:41:13;3.10;;;1.10;;
47383;SDS011;33129;52.232;5.192;2022-07-06T05:43:39;6.13;;;1.30;;
47383;SDS011;33129;52.232;5.192;2022-07-06T05:46:04;5.07;;;1.20;;
47383;SDS011;33129;52.232;5.192;2022-07-06T05:48:30;3.13;;;0.90;;
47383;SDS011;33129;52.232;5.192;2022-07-06T05:51:14;6.23;;;1.20;;
47383;SDS011;33129;52.232;5.192;2022-07-06T05:53:40;4.23;;;1.00;;
47383;SDS011;33129;52.232;5.192;2022-07-06T05:56:06;3.57;;;1.10;;
47383;SDS011;33129;52.232;5.192;2022-07-06T05:58:31;3.67;;;1.03;;
47383;SDS011;33129;52.232;5.192;2022-07-06T06:00:57;4.23;;;1.17;;
47383;SDS011;33129;52.232;5.192;2022-07-06T06:03:23;5.60;;;1.37;;
47383;SDS011;33129;52.232;5.192;2022-07-06T06:05:49;4.50;;;1.00;;
47383;SDS011;33129;52.232;5.192;2022-07-06T06:08:15;4.50;;;1.03;;
47383;SDS011;33129;52.232;5.192;2022-07-06T06:10:41;4.03;;;1.07;;
47383;SDS011;33129;52.232;5.192;2022-07-06T06:13:06;6.23;;;1.50;;
47383;SDS011;33129;52.232;5.192;2022-07-06T06:15:33;5.57;;;1.13;;
47383;SDS011;33129;52.232;5.192;2022-07-06T06:17:59;3.10;;;0.93;;
47383;SDS011;33129;52.232;5.192;2022-07-06T06:20:25;5.03;;;1.33;;
47383;SDS011;33129;52.232;5.192;2022-07-06T06:22:51;5.43;;;1.20;;
47383;SDS011;33129;52.232;5.192;2022-07-06T06:25:27;5.28;;;1.45;;
47383;SDS011;33129;52.232;5.192;2022-07-06T06:27:58;2.83;;;0.97;;
47383;SDS011;33129;52.232;5.192;2022-07-06T06:30:25;4.33;;;0.87;;
47383;SDS011;33129;52.232;5.192;2022-07-06T06:32:51;3.23;;;0.90;;
47383;SDS011;33129;52.232;5.192;2022-07-06T06:35:30;5.60;;;1.13;;
47383;SDS011;33129;52.232;5.192;2022-07-06T06:37:56;3.67;;;0.90;;
47383;SDS011;33129;52.232;5.192;2022-07-06T06:40:22;3.20;;;0.90;;
47383;SDS011;33129;52.232;5.192;2022-07-06T06:42:47;4.23;;;1.50;;
47383;SDS011;33129;52.232;5.192;2022-07-06T06:45:13;3.40;;;0.90;;
47383;SDS011;33129;52.232;5.192;2022-07-06T06:47:39;3.47;;;1.00;;
47383;SDS011;33129;52.232;5.192;2022-07-06T06:50:05;3.33;;;1.10;;
47383;SDS011;33129;52.232;5.192;2022-07-06T06:52:31;2.67;;;0.67;;
47383;SDS011;33129;52.232;5.192;2022-07-06T06:54:57;4.17;;;1.10;;
47383;SDS011;33129;52.232;5.192;2022-07-06T06:57:23;4.60;;;0.90;;
47383;SDS011;33129;52.232;5.192;2022-07-06T06:59:48;2.53;;;0.97;;
47383;SDS011;33129;52.232;5.192;2022-07-06T07:02:14;2.97;;;0.77;;
47383;SDS011;33129;52.232;5.192;2022-07-06T07:04:40;4.57;;;1.00;;
47383;SDS011;33129;52.232;5.192;2022-07-06T07:07:05;5.45;;;0.90;;
47383;SDS011;33129;52.232;5.192;2022-07-06T07:09:31;5.82;;;0.98;;
47383;SDS011;33129;52.232;5.192;2022-07-06T07:11:57;4.13;;;0.80;;
47383;SDS011;33129;52.232;5.192;2022-07-06T07:14:23;5.22;;;1.02;;
47383;SDS011;33129;52.232;5.192;2022-07-06T07:16:49;5.10;;;0.98;;
47383;SDS011;33129;52.232;5.192;2022-07-06T07:19:14;4.03;;;1.00;;
47383;SDS011;33129;52.232;5.192;2022-07-06T07:21:40;2.67;;;0.73;;
47383;SDS011;33129;52.232;5.192;2022-07-06T07:24:06;3.63;;;0.90;;
47383;SDS011;33129;52.232;5.192;2022-07-06T07:26:32;3.45;;;0.73;;
47383;SDS011;33129;52.232;5.192;2022-07-06T07:28:58;2.70;;;0.77;;
47383;SDS011;33129;52.232;5.192;2022-07-06T07:31:24;1.95;;;0.70;;
47383;SDS011;33129;52.232;5.192;2022-07-06T07:33:49;2.33;;;0.80;;
47383;SDS011;33129;52.232;5.192;2022-07-06T07:36:15;3.22;;;0.80;;
47383;SDS011;33129;52.232;5.192;2022-07-06T07:38:41;6.00;;;0.93;;
47383;SDS011;33129;52.232;5.192;2022-07-06T07:41:07;2.85;;;0.77;;
47383;SDS011;33129;52.232;5.192;2022-07-06T07:43:33;3.50;;;0.82;;
47383;SDS011;33129;52.232;5.192;2022-07-06T07:45:58;6.68;;;0.90;;
47383;SDS011;33129;52.232;5.192;2022-07-06T07:48:24;4.75;;;1.00;;
47383;SDS011;33129;52.232;5.192;2022-07-06T07:50:50;3.28;;;0.70;;
47383;SDS011;33129;52.232;5.192;2022-07-06T07:53:16;3.63;;;0.75;;
47383;SDS011;33129;52.232;5.192;2022-07-06T07:55:41;6.30;;;1.08;;
47383;SDS011;33129;52.232;5.192;2022-07-06T07:58:07;5.25;;;1.10;;
47383;SDS011;33129;52.232;5.192;2022-07-06T08:00:33;4.40;;;1.30;;
47383;SDS011;33129;52.232;5.192;2022-07-06T08:02:59;3.03;;;0.80;;
47383;SDS011;33129;52.232;5.192;2022-07-06T08:05:25;2.78;;;0.88;;
47383;SDS011;33129;52.232;5.192;2022-07-06T08:07:51;4.30;;;0.93;;
47383;SDS011;33129;52.232;5.192;2022-07-06T08:10:17;4.22;;;0.95;;
47383;SDS011;33129;52.232;5.192;2022-07-06T08:12:43;2.78;;;1.00;;
47383;SDS011;33129;52.232;5.192;2022-07-06T08:15:09;2.55;;;1.05;;
47383;SDS011;33129;52.232;5.192;2022-07-06T08:17:35;3.78;;;0.80;;
47383;SDS011;33129;52.232;5.192;2022-07-06T08:20:02;3.03;;;0.75;;
47383;SDS011;33129;52.232;5.192;2022-07-06T08:22:28;2.78;;;0.80;;
47383;SDS011;33129;52.232;5.192;2022-07-06T08:24:54;3.15;;;0.60;;
47383;SDS011;33129;52.232;5.192;2022-07-06T08:27:20;4.63;;;0.90;;
47383;SDS011;33129;52.232;5.192;2022-07-06T08:29:48;2.72;;;0.77;;
47383;SDS011;33129;52.232;5.192;2022-07-06T08:32:14;4.40;;;1.10;;
47383;SDS011;33129;52.232;5.192;2022-07-06T08:34:40;3.03;;;1.10;;
47383;SDS011;33129;52.232;5.192;2022-07-06T08:37:08;3.25;;;0.80;;
47383;SDS011;33129;52.232;5.192;2022-07-06T08:39:33;4.68;;;1.00;;
47383;SDS011;33129;52.232;5.192;2022-07-06T08:41:59;4.30;;;0.70;;
47383;SDS011;33129;52.232;5.192;2022-07-06T08:44:27;2.92;;;0.70;;
47383;SDS011;33129;52.232;5.192;2022-07-06T08:46:54;4.38;;;1.08;;
47383;SDS011;33129;52.232;5.192;2022-07-06T08:49:23;5.18;;;1.00;;
47383;SDS011;33129;52.232;5.192;2022-07-06T08:51:50;2.50;;;0.70;;
47383;SDS011;33129;52.232;5.192;2022-07-06T08:54:17;2.75;;;0.80;;
47383;SDS011;33129;52.232;5.192;2022-07-06T08:56:44;2.80;;;0.70;;
47383;SDS011;33129;52.232;5.192;2022-07-06T08:59:11;2.75;;;0.70;;
47383;SDS011;33129;52.232;5.192;2022-07-06T09:01:38;2.15;;;0.70;;
47383;SDS011;33129;52.232;5.192;2022-07-06T09:04:05;3.38;;;0.70;;
47383;SDS011;33129;52.232;5.192;2022-07-06T09:06:32;2.15;;;0.50;;
47383;SDS011;33129;52.232;5.192;2022-07-06T09:09:00;2.25;;;0.60;;
47383;SDS011;33129;52.232;5.192;2022-07-06T09:11:31;5.00;;;0.70;;
47383;SDS011;33129;52.232;5.192;2022-07-06T09:13:57;3.00;;;0.70;;
47383;SDS011;33129;52.232;5.192;2022-07-06T09:16:29;3.60;;;0.50;;
47383;SDS011;33129;52.232;5.192;2022-07-06T09:18:55;4.75;;;0.77;;
47383;SDS011;33129;52.232;5.192;2022-07-06T09:21:22;4.38;;;0.70;;
47383;SDS011;33129;52.232;5.192;2022-07-06T09:23:54;4.85;;;0.95;;
47383;SDS011;33129;52.232;5.192;2022-07-06T09:26:21;3.92;;;0.88;;
47383;SDS011;33129;52.232;5.192;2022-07-06T09:28:48;1.30;;;0.47;;
47383;SDS011;33129;52.232;5.192;2022-07-06T09:31:15;3.40;;;0.65;;
47383;SDS011;33129;52.232;5.192;2022-07-06T09:36:48;2.13;;;0.50;;
47383;SDS011;33129;52.232;5.192;2022-07-06T09:39:16;2.30;;;0.60;;
47383;SDS011;33129;52.232;5.192;2022-07-06T09:41:53;2.42;;;0.60;;
47383;SDS011;33129;52.232;5.192;2022-07-06T09:46:49;3.03;;;0.60;;
47383;SDS011;33129;52.232;5.192;2022-07-06T09:49:19;1.73;;;0.40;;
47383;SDS011;33129;52.232;5.192;2022-07-06T09:54:13;3.63;;;0.70;;
47383;SDS011;33129;52.232;5.192;2022-07-06T09:56:42;3.17;;;0.88;;
47383;SDS011;33129;52.232;5.192;2022-07-06T09:59:11;3.30;;;0.68;;
47383;SDS011;33129;52.232;5.192;2022-07-06T10:01:38;4.10;;;0.77;;
47383;SDS011;33129;52.232;5.192;2022-07-06T10:04:06;2.30;;;0.50;;
47383;SDS011;33129;52.232;5.192;2022-07-06T10:06:33;2.03;;;0.60;;
47383;SDS011;33129;52.232;5.192;2022-07-06T10:09:00;2.67;;;0.50;;
47383;SDS011;33129;52.232;5.192;2022-07-06T10:11:29;1.42;;;0.50;;
47383;SDS011;33129;52.232;5.192;2022-07-06T10:14:03;2.38;;;0.60;;
47383;SDS011;33129;52.232;5.192;2022-07-06T10:16:31;2.30;;;0.63;;
47383;SDS011;33129;52.232;5.192;2022-07-06T10:18:56;3.88;;;0.63;;
47383;SDS011;33129;52.232;5.192;2022-07-06T10:21:24;3.25;;;0.60;;
47383;SDS011;33129;52.232;5.192;2022-07-06T10:23:50;1.92;;;0.60;;
47383;SDS011;33129;52.232;5.192;2022-07-06T10:26:17;1.88;;;0.60;;
47383;SDS011;33129;52.232;5.192;2022-07-06T10:28:44;2.85;;;0.60;;
47383;SDS011;33129;52.232;5.192;2022-07-06T10:31:12;2.20;;;0.88;;
47383;SDS011;33129;52.232;5.192;2022-07-06T10:33:40;2.20;;;0.50;;
47383;SDS011;33129;52.232;5.192;2022-07-06T10:36:06;2.05;;;0.60;;
47383;SDS011;33129;52.232;5.192;2022-07-06T10:38:33;3.13;;;0.90;;
47383;SDS011;33129;52.232;5.192;2022-07-06T10:41:04;2.10;;;0.55;;
47383;SDS011;33129;52.232;5.192;2022-07-06T10:48:48;5.13;;;0.98;;
47383;SDS011;33129;52.232;5.192;2022-07-06T10:51:24;4.82;;;0.82;;
47383;SDS011;33129;52.232;5.192;2022-07-06T10:53:56;1.33;;;0.43;;
47383;SDS011;33129;52.232;5.192;2022-07-06T10:59:13;1.90;;;0.50;;
47383;SDS011;33129;52.232;5.192;2022-07-06T11:04:40;2.33;;;0.60;;
47383;SDS011;33129;52.232;5.192;2022-07-06T11:07:09;2.50;;;0.77;;
47383;SDS011;33129;52.232;5.192;2022-07-06T11:09:40;3.85;;;1.17;;
47383;SDS011;33129;52.232;5.192;2022-07-06T11:12:22;2.15;;;0.60;;
47383;SDS011;33129;52.232;5.192;2022-07-06T11:14:48;3.80;;;0.80;;
47383;SDS011;33129;52.232;5.192;2022-07-06T11:17:16;1.95;;;0.60;;
47383;SDS011;33129;52.232;5.192;2022-07-06T11:19:49;1.95;;;0.60;;
47383;SDS011;33129;52.232;5.192;2022-07-06T11:22:35;1.92;;;0.50;;
47383;SDS011;33129;52.232;5.192;2022-07-06T11:25:03;2.80;;;0.80;;
47383;SDS011;33129;52.232;5.192;2022-07-06T11:27:30;4.55;;;1.30;;
47383;SDS011;33129;52.232;5.192;2022-07-06T11:29:58;3.78;;;0.60;;
47383;SDS011;33129;52.232;5.192;2022-07-06T11:32:27;2.13;;;0.63;;
47383;SDS011;33129;52.232;5.192;2022-07-06T11:34:53;2.22;;;0.50;;
47383;SDS011;33129;52.232;5.192;2022-07-06T11:37:19;1.55;;;0.60;;
47383;SDS011;33129;52.232;5.192;2022-07-06T11:39:46;2.33;;;0.60;;
47383;SDS011;33129;52.232;5.192;2022-07-06T11:42:16;2.58;;;0.80;;
47383;SDS011;33129;52.232;5.192;2022-07-06T11:44:43;2.55;;;0.80;;
47383;SDS011;33129;52.232;5.192;2022-07-06T11:47:10;2.83;;;0.70;;
47383;SDS011;33129;52.232;5.192;2022-07-06T11:49:38;4.18;;;0.90;;
47383;SDS011;33129;52.232;5.192;2022-07-06T11:52:06;2.20;;;0.77;;
47383;SDS011;33129;52.232;5.192;2022-07-06T11:54:33;3.55;;;0.75;;
47383;SDS011;33129;52.232;5.192;2022-07-06T11:57:00;3.22;;;0.70;;
47383;SDS011;33129;52.232;5.192;2022-07-06T11:59:30;4.40;;;0.80;;
47383;SDS011;33129;52.232;5.192;2022-07-06T12:02:02;3.63;;;0.90;;
47383;SDS011;33129;52.232;5.192;2022-07-06T12:04:34;2.45;;;0.70;;
47383;SDS011;33129;52.232;5.192;2022-07-06T12:07:06;3.03;;;0.68;;
47383;SDS011;33129;52.232;5.192;2022-07-06T12:09:37;2.83;;;0.63;;
47383;SDS011;33129;52.232;5.192;2022-07-06T12:12:05;2.00;;;0.68;;
47383;SDS011;33129;52.232;5.192;2022-07-06T12:14:33;3.33;;;0.98;;
47383;SDS011;33129;52.232;5.192;2022-07-06T12:19:34;3.63;;;0.60;;
47383;SDS011;33129;52.232;5.192;2022-07-06T12:22:01;2.78;;;0.90;;
47383;SDS011;33129;52.232;5.192;2022-07-06T12:24:29;3.92;;;0.75;;
47383;SDS011;33129;52.232;5.192;2022-07-06T12:27:17;3.22;;;0.70;;
47383;SDS011;33129;52.232;5.192;2022-07-06T12:29:45;3.25;;;0.73;;
47383;SDS011;33129;52.232;5.192;2022-07-06T12:32:13;3.85;;;0.82;;
47383;SDS011;33129;52.232;5.192;2022-07-06T12:34:44;2.55;;;0.63;;
47383;SDS011;33129;52.232;5.192;2022-07-06T12:37:14;2.85;;;0.60;;
47383;SDS011;33129;52.232;5.192;2022-07-06T12:39:47;4.18;;;0.98;;
47383;SDS011;33129;52.232;5.192;2022-07-06T12:42:15;5.07;;;0.93;;
47383;SDS011;33129;52.232;5.192;2022-07-06T12:44:44;2.85;;;0.70;;
47383;SDS011;33129;52.232;5.192;2022-07-06T12:47:18;4.20;;;0.90;;
47383;SDS011;33129;52.232;5.192;2022-07-06T12:49:48;3.08;;;0.82;;
47383;SDS011;33129;52.232;5.192;2022-07-06T12:52:33;4.53;;;1.33;;
47383;SDS011;33129;52.232;5.192;2022-07-06T12:55:01;3.83;;;1.08;;
47383;SDS011;33129;52.232;5.192;2022-07-06T12:57:41;2.05;;;0.70;;
47383;SDS011;33129;52.232;5.192;2022-07-06T13:00:12;3.80;;;1.00;;
47383;SDS011;33129;52.232;5.192;2022-07-06T13:02:39;2.78;;;0.70;;
47383;SDS011;33129;52.232;5.192;2022-07-06T13:05:11;3.17;;;0.63;;
47383;SDS011;33129;52.232;5.192;2022-07-06T13:07:43;4.07;;;0.85;;
47383;SDS011;33129;52.232;5.192;2022-07-06T13:10:14;2.80;;;0.73;;
47383;SDS011;33129;52.232;5.192;2022-07-06T13:12:41;3.67;;;0.88;;
47383;SDS011;33129;52.232;5.192;2022-07-06T13:15:08;4.20;;;0.80;;
47383;SDS011;33129;52.232;5.192;2022-07-06T13:17:35;3.15;;;0.82;;
47383;SDS011;33129;52.232;5.192;2022-07-06T13:20:02;3.35;;;1.17;;
47383;SDS011;33129;52.232;5.192;2022-07-06T13:22:30;2.95;;;0.85;;
47383;SDS011;33129;52.232;5.192;2022-07-06T13:24:56;3.85;;;0.90;;
47383;SDS011;33129;52.232;5.192;2022-07-06T13:27:22;3.17;;;0.95;;
47383;SDS011;33129;52.232;5.192;2022-07-06T13:29:48;4.57;;;0.98;;
47383;SDS011;33129;52.232;5.192;2022-07-06T13:32:13;4.88;;;1.38;;
47383;SDS011;33129;52.232;5.192;2022-07-06T13:34:39;3.70;;;0.90;;
47383;SDS011;33129;52.232;5.192;2022-07-06T13:37:06;5.55;;;1.05;;
47383;SDS011;33129;52.232;5.192;2022-07-06T13:39:32;4.90;;;1.20;;
47383;SDS011;33129;52.232;5.192;2022-07-06T13:41:58;5.05;;;1.40;;
47383;SDS011;33129;52.232;5.192;2022-07-06T13:44:25;3.65;;;1.00;;
47383;SDS011;33129;52.232;5.192;2022-07-06T13:46:51;3.53;;;1.00;;
47383;SDS011;33129;52.232;5.192;2022-07-06T13:54:53;4.28;;;1.00;;
47383;SDS011;33129;52.232;5.192;2022-07-06T14:00:21;6.97;;;1.20;;
47383;SDS011;33129;52.232;5.192;2022-07-06T14:02:53;4.78;;;1.30;;
47383;SDS011;33129;52.232;5.192;2022-07-06T14:05:28;3.05;;;1.00;;
47383;SDS011;33129;52.232;5.192;2022-07-06T14:10:48;5.45;;;1.75;;
47383;SDS011;33129;52.232;5.192;2022-07-06T14:16:21;2.72;;;0.90;;
47383;SDS011;33129;52.232;5.192;2022-07-06T14:19:23;3.47;;;1.02;;
47383;SDS011;33129;52.232;5.192;2022-07-06T14:21:49;4.55;;;1.40;;
47383;SDS011;33129;52.232;5.192;2022-07-06T14:24:15;6.88;;;1.50;;
47383;SDS011;33129;52.232;5.192;2022-07-06T14:26:41;5.90;;;1.33;;
47383;SDS011;33129;52.232;5.192;2022-07-06T14:29:07;7.50;;;1.40;;
47383;SDS011;33129;52.232;5.192;2022-07-06T14:31:33;4.05;;;1.42;;
47383;SDS011;33129;52.232;5.192;2022-07-06T14:33:59;3.85;;;1.20;;
47383;SDS011;33129;52.232;5.192;2022-07-06T14:36:25;4.35;;;1.15;;
47383;SDS011;33129;52.232;5.192;2022-07-06T14:38:51;4.28;;;1.38;;
47383;SDS011;33129;52.232;5.192;2022-07-06T14:41:16;4.25;;;1.23;;
47383;SDS011;33129;52.232;5.192;2022-07-06T14:43:42;8.10;;;1.92;;
47383;SDS011;33129;52.232;5.192;2022-07-06T14:46:08;6.32;;;1.70;;
47383;SDS011;33129;52.232;5.192;2022-07-06T14:48:34;5.97;;;1.65;;
47383;SDS011;33129;52.232;5.192;2022-07-06T14:51:00;4.95;;;1.50;;
47383;SDS011;33129;52.232;5.192;2022-07-06T14:53:26;5.50;;;2.15;;
47383;SDS011;33129;52.232;5.192;2022-07-06T14:55:51;7.22;;;1.85;;
47383;SDS011;33129;52.232;5.192;2022-07-06T14:58:17;5.43;;;1.77;;
47383;SDS011;33129;52.232;5.192;2022-07-06T15:00:44;5.68;;;1.95;;
47383;SDS011;33129;52.232;5.192;2022-07-06T15:03:11;6.25;;;2.10;;
47383;SDS011;33129;52.232;5.192;2022-07-06T15:05:37;4.30;;;2.00;;
47383;SDS011;33129;52.232;5.192;2022-07-06T15:08:02;7.57;;;2.22;;
47383;SDS011;33129;52.232;5.192;2022-07-06T15:10:30;6.55;;;2.25;;
47383;SDS011;33129;52.232;5.192;2022-07-06T15:12:56;7.47;;;2.38;;
47383;SDS011;33129;52.232;5.192;2022-07-06T15:15:23;8.65;;;3.08;;
47383;SDS011;33129;52.232;5.192;2022-07-06T15:17:48;6.05;;;3.00;;
47383;SDS011;33129;52.232;5.192;2022-07-06T15:20:14;6.72;;;3.40;;
47383;SDS011;33129;52.232;5.192;2022-07-06T15:22:41;7.75;;;3.45;;
47383;SDS011;33129;52.232;5.192;2022-07-06T15:25:08;8.68;;;3.90;;